createdAt,value
2022-12-25T00:01:18.322Z,97083.88
2022-12-25T00:03:45.564Z,97075.16
2022-12-25T00:06:12.354Z,97074.81
2022-12-25T00:08:40.155Z,97019.78
2022-12-25T00:11:13.551Z,96998.56
2022-12-25T00:13:40.186Z,97079.97
2022-12-25T00:16:18.778Z,96923.94
2022-12-25T00:18:46.438Z,97091.34
2022-12-25T00:21:13.970Z,97077.69
2022-12-25T00:23:40.855Z,97109.03
2022-12-25T00:26:10.997Z,97117.44
2022-12-25T00:28:37.562Z,97081.59
2022-12-25T00:31:09.007Z,97114.03
2022-12-25T00:33:39.852Z,97125.44
2022-12-25T00:36:07.728Z,97121.31
2022-12-25T00:38:36.348Z,97123.31
2022-12-25T00:41:08.502Z,97123.97
2022-12-25T00:43:35.116Z,97126.41
2022-12-25T00:46:03.861Z,97044.69
2022-12-25T00:48:31.473Z,97120.25
2022-12-25T00:51:01.764Z,97136.22
2022-12-25T00:53:29.320Z,97122.31
2022-12-25T00:56:01.070Z,97125.69
2022-12-25T00:58:29.926Z,97124.25
2022-12-25T01:00:57.283Z,97133.38
2022-12-25T01:03:24.569Z,97156.81
2022-12-25T01:06:11.040Z,97122.00
2022-12-25T01:08:59.737Z,97115.97
2022-12-25T01:11:26.685Z,97157.88
2022-12-25T01:13:53.294Z,97031.63
2022-12-25T01:16:19.902Z,97151.72
2022-12-25T01:18:46.800Z,97167.81
2022-12-25T01:21:18.154Z,97156.16
2022-12-25T01:23:45.099Z,97144.25
2022-12-25T01:26:14.197Z,97127.63
2022-12-25T01:28:41.291Z,97151.63
2022-12-25T01:31:13.587Z,97143.16
2022-12-25T01:33:42.269Z,97149.78
2022-12-25T01:36:24.000Z,97150.56
2022-12-25T01:38:52.047Z,96978.38
2022-12-25T01:41:21.441Z,97107.56
2022-12-25T01:44:06.292Z,97150.47
2022-12-25T01:46:33.253Z,97051.38
2022-12-25T01:49:08.336Z,97069.09
2022-12-25T01:51:34.917Z,97162.34
2022-12-25T01:54:05.988Z,97143.56
2022-12-25T01:56:35.225Z,97155.25
2022-12-25T01:59:02.914Z,97141.94
2022-12-25T02:01:29.725Z,97155.91
2022-12-25T02:04:06.720Z,97142.63
2022-12-25T02:06:35.240Z,97152.94
2022-12-25T02:09:02.001Z,97158.69
2022-12-25T02:11:47.064Z,97128.94
2022-12-25T02:14:13.728Z,97057.56
2022-12-25T02:16:58.017Z,97143.69
2022-12-25T02:19:43.792Z,97152.81
2022-12-25T02:22:10.392Z,96952.03
2022-12-25T02:24:39.609Z,97163.00
2022-12-25T02:27:26.449Z,97162.66
2022-12-25T02:30:07.140Z,97163.31
2022-12-25T02:33:17.001Z,97125.88
2022-12-25T02:35:50.946Z,97160.31
2022-12-25T02:38:31.220Z,97124.94
2022-12-25T02:41:02.221Z,97168.09
2022-12-25T02:43:52.804Z,97175.72
2022-12-25T02:46:41.915Z,97088.63
2022-12-25T02:49:38.254Z,97159.84
2022-12-25T02:52:37.720Z,97142.22
2022-12-25T02:55:30.756Z,97158.31
2022-12-25T02:58:21.278Z,97157.31
2022-12-25T03:01:09.130Z,97172.38
2022-12-25T03:03:59.206Z,97090.19
2022-12-25T03:06:44.280Z,97090.81
2022-12-25T03:09:38.773Z,97173.06
2022-12-25T03:12:37.586Z,97179.50
2022-12-25T03:15:25.456Z,97161.16
2022-12-25T03:17:52.681Z,97189.16
2022-12-25T03:20:37.688Z,97198.81
2022-12-25T03:23:22.908Z,97106.44
2022-12-25T03:26:08.045Z,97189.81
2022-12-25T03:28:34.649Z,97179.22
2022-12-25T03:31:13.471Z,97199.38
2022-12-25T03:34:40.246Z,97201.75
2022-12-25T03:37:18.704Z,97199.47
2022-12-25T03:39:56.578Z,97201.16
2022-12-25T03:42:47.173Z,97200.50
2022-12-25T03:45:50.475Z,97193.78
2022-12-25T03:48:36.652Z,97171.78
2022-12-25T03:51:28.661Z,97189.56
2022-12-25T03:54:19.550Z,97213.81
2022-12-25T03:57:05.110Z,97198.00
2022-12-25T03:59:50.322Z,97139.47
2022-12-25T04:02:35.637Z,97189.94
2022-12-25T04:05:20.874Z,97217.03
2022-12-25T04:08:05.910Z,97237.22
2022-12-25T04:10:51.277Z,97224.94
2022-12-25T04:13:36.395Z,97190.63
2022-12-25T04:16:21.748Z,97218.59
2022-12-25T04:19:07.022Z,97176.72
2022-12-25T04:21:52.528Z,97243.75
2022-12-25T04:24:51.355Z,97251.72
2022-12-25T04:27:36.285Z,97256.22
2022-12-25T04:30:21.517Z,97260.22
2022-12-25T04:33:06.758Z,97239.22
2022-12-25T04:35:51.855Z,97258.84
2022-12-25T04:38:20.953Z,97241.28
2022-12-25T04:40:47.621Z,96911.13
2022-12-25T04:43:14.229Z,97261.94
2022-12-25T04:45:40.762Z,97201.69
2022-12-25T04:48:07.384Z,97132.19
2022-12-25T04:50:33.992Z,97288.09
2022-12-25T04:53:00.694Z,97284.00
2022-12-25T04:55:27.329Z,97187.25
2022-12-25T04:57:53.948Z,97288.31
2022-12-25T05:00:20.572Z,97175.09
2022-12-25T05:02:47.289Z,97289.72
2022-12-25T05:05:14.057Z,97299.72
2022-12-25T05:07:40.596Z,97300.81
2022-12-25T05:10:07.703Z,97284.56
2022-12-25T05:12:34.247Z,97296.78
2022-12-25T05:15:00.901Z,97301.56
2022-12-25T05:17:27.594Z,97303.66
2022-12-25T05:19:54.189Z,97307.63
2022-12-25T05:22:20.790Z,97315.88
2022-12-25T05:24:47.394Z,97319.47
2022-12-25T05:27:15.034Z,97247.28
2022-12-25T05:29:41.625Z,97329.22
2022-12-25T05:32:08.299Z,97325.19
2022-12-25T05:34:34.898Z,97331.41
2022-12-25T05:37:01.481Z,97323.13
2022-12-25T05:39:28.113Z,97310.28
2022-12-25T05:41:54.748Z,97304.97
2022-12-25T05:44:21.809Z,97332.22
2022-12-25T05:46:48.567Z,97259.78
2022-12-25T05:49:15.311Z,97255.38
2022-12-25T05:51:41.901Z,97339.16
2022-12-25T05:54:08.474Z,97344.88
2022-12-25T05:56:37.366Z,97346.59
2022-12-25T05:59:03.975Z,97351.03
2022-12-25T06:01:30.782Z,97348.06
2022-12-25T06:03:57.794Z,97352.06
2022-12-25T06:06:24.679Z,97343.72
2022-12-25T06:08:55.095Z,97354.63
2022-12-25T06:11:22.191Z,97353.16
2022-12-25T06:13:52.672Z,97351.06
2022-12-25T06:16:20.094Z,97354.75
2022-12-25T06:18:50.365Z,97360.88
2022-12-25T06:21:17.005Z,97373.69
2022-12-25T06:23:44.151Z,97375.78
2022-12-25T06:26:14.280Z,97386.44
2022-12-25T06:28:41.407Z,97390.66
2022-12-25T06:31:13.561Z,97409.56
2022-12-25T06:33:40.280Z,97329.25
2022-12-25T06:36:11.279Z,97414.72
2022-12-25T06:38:38.340Z,97393.28
2022-12-25T06:41:13.368Z,97290.56
2022-12-25T06:43:39.980Z,97407.03
2022-12-25T06:46:09.931Z,97422.03
2022-12-25T06:48:38.440Z,97390.06
2022-12-25T06:51:06.061Z,97398.56
2022-12-25T06:53:39.801Z,97418.28
2022-12-25T06:56:10.104Z,97399.19
2022-12-25T06:58:36.786Z,97412.81
2022-12-25T07:01:15.256Z,97405.59
2022-12-25T07:03:45.328Z,97398.56
2022-12-25T07:06:11.950Z,97402.47
2022-12-25T07:08:38.936Z,97412.91
2022-12-25T07:11:06.863Z,97419.72
2022-12-25T07:13:33.730Z,97429.25
2022-12-25T07:16:02.375Z,97391.66
2022-12-25T07:18:29.777Z,97413.13
2022-12-25T07:20:56.391Z,97419.63
2022-12-25T07:23:23.246Z,97417.69
2022-12-25T07:26:00.054Z,97419.38
2022-12-25T07:28:27.580Z,97291.22
2022-12-25T07:30:54.262Z,97356.41
2022-12-25T07:33:21.293Z,97444.63
2022-12-25T07:35:48.037Z,97444.13
2022-12-25T07:38:14.683Z,97441.94
2022-12-25T07:40:41.318Z,97447.84
2022-12-25T07:43:07.898Z,97433.41
2022-12-25T07:45:34.528Z,97413.75
2022-12-25T07:48:05.314Z,97458.03
2022-12-25T07:50:33.240Z,97458.19
2022-12-25T07:52:59.822Z,97468.09
2022-12-25T07:55:26.404Z,97467.25
2022-12-25T07:57:53.093Z,97466.31
2022-12-25T08:00:19.936Z,97357.06
2022-12-25T08:02:50.171Z,97478.06
2022-12-25T08:05:17.092Z,97498.88
2022-12-25T08:07:43.742Z,97503.44
2022-12-25T08:10:10.729Z,97510.81
2022-12-25T08:12:37.299Z,97503.81
2022-12-25T08:15:04.186Z,97500.00
2022-12-25T08:17:30.814Z,97489.50
2022-12-25T08:19:57.434Z,97510.09
2022-12-25T08:22:23.999Z,97501.00
2022-12-25T08:24:50.599Z,97458.41
2022-12-25T08:27:17.251Z,97501.88
2022-12-25T08:29:44.940Z,97423.41
2022-12-25T08:32:11.542Z,97516.25
2022-12-25T08:34:38.702Z,97518.78
2022-12-25T08:37:05.365Z,97515.84
2022-12-25T08:39:32.269Z,97492.59
2022-12-25T08:41:58.994Z,97528.84
2022-12-25T08:44:25.574Z,97518.91
2022-12-25T08:46:52.220Z,97455.59
2022-12-25T08:49:19.511Z,97477.44
2022-12-25T08:51:46.413Z,97516.34
2022-12-25T08:54:13.083Z,97508.28
2022-12-25T08:56:39.859Z,97492.09
2022-12-25T08:59:06.547Z,97488.22
2022-12-25T09:01:33.189Z,97445.59
2022-12-25T09:03:59.931Z,97489.06
2022-12-25T09:06:26.578Z,97489.88
2022-12-25T09:08:53.271Z,97492.19
2022-12-25T09:11:20.653Z,97381.88
2022-12-25T09:13:48.501Z,97432.81
2022-12-25T09:16:18.642Z,97482.41
2022-12-25T09:18:45.368Z,97478.78
2022-12-25T09:21:14.691Z,97470.03
2022-12-25T09:23:42.256Z,97468.28
2022-12-25T09:26:12.784Z,97504.50
2022-12-25T09:28:40.817Z,97511.63
2022-12-25T09:31:09.233Z,97499.06
2022-12-25T09:33:35.947Z,97485.72
2022-12-25T09:36:06.344Z,97493.09
2022-12-25T09:38:34.223Z,97492.84
2022-12-25T09:41:20.931Z,97491.97
2022-12-25T09:44:02.803Z,97501.34
2022-12-25T09:46:41.886Z,97481.97
2022-12-25T09:49:34.470Z,97486.25
2022-12-25T09:52:10.507Z,97480.78
2022-12-25T09:54:50.273Z,97478.50
2022-12-25T09:57:17.043Z,97479.41
2022-12-25T09:59:45.103Z,97476.25
2022-12-25T10:02:47.004Z,97480.28
2022-12-25T10:05:25.649Z,97492.09
2022-12-25T10:07:58.115Z,97473.16
2022-12-25T10:10:39.908Z,97485.19
2022-12-25T10:13:16.157Z,97476.41
2022-12-25T10:16:10.062Z,97415.56
2022-12-25T10:19:02.817Z,97474.63
2022-12-25T10:21:29.594Z,97483.72
2022-12-25T10:24:10.434Z,97424.13
2022-12-25T10:26:37.016Z,97466.56
2022-12-25T10:29:15.022Z,97446.00
2022-12-25T10:31:45.933Z,97475.78
2022-12-25T10:34:14.667Z,97452.50
2022-12-25T10:36:43.773Z,97393.16
2022-12-25T10:39:21.275Z,97477.66
2022-12-25T10:42:06.423Z,97483.72
2022-12-25T10:44:34.541Z,97478.22
2022-12-25T10:47:02.897Z,97431.75
2022-12-25T10:49:37.877Z,97471.94
2022-12-25T10:52:21.574Z,97431.13
2022-12-25T10:54:48.218Z,97473.00
2022-12-25T10:57:17.945Z,97465.94
2022-12-25T10:59:47.094Z,97463.69
2022-12-25T11:02:27.686Z,97464.63
2022-12-25T11:05:04.670Z,97469.50
2022-12-25T11:07:32.669Z,97409.56
2022-12-25T11:10:05.651Z,97474.28
2022-12-25T11:12:35.438Z,97460.81
2022-12-25T11:15:26.914Z,97465.63
2022-12-25T11:17:53.585Z,97472.78
2022-12-25T11:20:20.722Z,97472.72
2022-12-25T11:22:49.773Z,97453.09
2022-12-25T11:25:25.514Z,97470.63
2022-12-25T11:28:04.525Z,97459.44
2022-12-25T11:30:33.421Z,97471.78
2022-12-25T11:33:05.844Z,97454.16
2022-12-25T11:35:43.332Z,97413.94
2022-12-25T11:38:09.941Z,97471.63
2022-12-25T11:40:54.774Z,97465.69
2022-12-25T11:43:35.674Z,97472.13
2022-12-25T11:46:23.723Z,97466.63
2022-12-25T11:48:56.388Z,97474.16
2022-12-25T11:51:32.093Z,97478.84
2022-12-25T11:54:07.992Z,97470.41
2022-12-25T11:56:34.556Z,97459.63
2022-12-25T11:59:09.841Z,97370.81
2022-12-25T12:01:45.170Z,97456.91
2022-12-25T12:04:32.697Z,97428.56
2022-12-25T12:07:13.428Z,97410.28
2022-12-25T12:09:50.367Z,97478.19
2022-12-25T12:12:35.286Z,97412.75
2022-12-25T12:15:07.759Z,97405.59
2022-12-25T12:17:34.648Z,97482.31
2022-12-25T12:20:26.833Z,97512.59
2022-12-25T12:22:53.716Z,97481.81
2022-12-25T12:25:21.519Z,97474.44
2022-12-25T12:27:58.444Z,97458.41
2022-12-25T12:30:35.418Z,97474.13
2022-12-25T12:33:07.333Z,97352.13
2022-12-25T12:35:37.310Z,97430.03
2022-12-25T12:38:20.364Z,97483.25
2022-12-25T12:41:00.650Z,97434.34
2022-12-25T12:43:43.355Z,97447.94
2022-12-25T12:46:31.413Z,97483.94
2022-12-25T12:49:22.162Z,97506.50
2022-12-25T12:51:49.350Z,97478.91
2022-12-25T12:54:25.228Z,97494.69
2022-12-25T12:57:06.141Z,97494.28
2022-12-25T12:59:46.897Z,97487.78
2022-12-25T13:02:41.014Z,97492.59
2022-12-25T13:05:38.526Z,97507.38
2022-12-25T13:08:10.827Z,97501.69
2022-12-25T13:10:41.345Z,97483.94
2022-12-25T13:13:33.940Z,97495.97
2022-12-25T13:16:00.599Z,97506.34
2022-12-25T13:18:27.407Z,97492.66
2022-12-25T13:21:01.008Z,97514.94
2022-12-25T13:23:28.977Z,97503.03
2022-12-25T13:25:58.282Z,97114.97
2022-12-25T13:28:30.328Z,97571.91
2022-12-25T13:31:15.668Z,97518.91
2022-12-25T13:33:48.171Z,97446.84
2022-12-25T13:36:15.380Z,97460.00
2022-12-25T13:38:51.336Z,97509.22
2022-12-25T13:41:43.869Z,97491.63
2022-12-25T13:44:28.723Z,97528.41
2022-12-25T13:46:55.463Z,97501.44
2022-12-25T13:49:24.048Z,97505.97
2022-12-25T13:51:51.488Z,97532.88
2022-12-25T13:54:19.341Z,97520.63
2022-12-25T13:56:54.756Z,97538.50
2022-12-25T13:59:24.871Z,97530.63
2022-12-25T14:01:54.010Z,97512.09
2022-12-25T14:04:23.927Z,97546.31
2022-12-25T14:06:52.603Z,97515.56
2022-12-25T14:09:20.401Z,97531.63
2022-12-25T14:11:52.107Z,97533.91
2022-12-25T14:14:26.089Z,97550.56
2022-12-25T14:16:56.285Z,97562.97
2022-12-25T14:19:28.969Z,97548.09
2022-12-25T14:22:10.859Z,97533.88
2022-12-25T14:24:40.128Z,97551.53
2022-12-25T14:27:20.046Z,97545.81
2022-12-25T14:29:49.188Z,97567.22
2022-12-25T14:32:19.660Z,97556.50
2022-12-25T14:34:49.445Z,97506.59
2022-12-25T14:37:20.029Z,97580.75
2022-12-25T14:40:05.209Z,97578.47
2022-12-25T14:42:37.538Z,97573.00
2022-12-25T14:45:07.524Z,97579.16
2022-12-25T14:47:50.907Z,97524.41
2022-12-25T14:50:28.868Z,97587.88
2022-12-25T14:52:56.338Z,97577.00
2022-12-25T14:55:26.754Z,97535.91
2022-12-25T14:58:01.956Z,97573.63
2022-12-25T15:00:38.001Z,97583.78
2022-12-25T15:03:08.217Z,97582.72
2022-12-25T15:05:38.222Z,97549.59
2022-12-25T15:08:13.707Z,97585.19
2022-12-25T15:13:28.880Z,97594.16
2022-12-25T15:16:01.560Z,97595.88
2022-12-25T15:18:33.357Z,97530.47
2022-12-25T15:21:00.220Z,97604.75
2022-12-25T15:23:26.853Z,97603.13
2022-12-25T15:25:53.560Z,97604.72
2022-12-25T15:28:20.830Z,97596.19
2022-12-25T15:30:49.742Z,97554.94
2022-12-25T15:33:18.653Z,97613.47
2022-12-25T15:35:45.794Z,97610.25
2022-12-25T15:38:13.636Z,97485.13
2022-12-25T15:40:41.410Z,97597.41
2022-12-25T15:43:38.847Z,97577.66
2022-12-25T15:45:58.824Z,97591.00
2022-12-25T15:48:25.437Z,97557.16
2022-12-25T15:50:52.039Z,97609.16
2022-12-25T15:53:18.560Z,97624.84
2022-12-25T15:55:45.134Z,97602.25
2022-12-25T15:58:13.156Z,97619.09
2022-12-25T16:00:39.764Z,97629.66
2022-12-25T16:03:06.517Z,97630.13
2022-12-25T16:05:33.243Z,97550.69
2022-12-25T16:07:59.927Z,97623.31
2022-12-25T16:10:26.588Z,97556.81
2022-12-25T16:12:53.195Z,97639.06
2022-12-25T16:15:19.834Z,97607.13
2022-12-25T16:17:46.467Z,97616.28
2022-12-25T16:20:13.509Z,97593.50
2022-12-25T16:22:40.270Z,97649.25
2022-12-25T16:25:15.012Z,97655.47
2022-12-25T16:27:41.620Z,97656.69
2022-12-25T16:30:09.614Z,97607.94
2022-12-25T16:32:36.241Z,97673.06
2022-12-25T16:35:03.047Z,97666.22
2022-12-25T16:37:29.757Z,97671.84
2022-12-25T16:39:56.320Z,97644.97
2022-12-25T16:42:22.962Z,97677.22
2022-12-25T16:44:50.018Z,97677.75
2022-12-25T16:47:16.702Z,97670.34
2022-12-25T16:49:43.355Z,97674.38
2022-12-25T16:52:10.049Z,97625.81
2022-12-25T16:54:36.639Z,97686.59
2022-12-25T16:57:03.415Z,97666.69
2022-12-25T16:59:30.526Z,97688.44
2022-12-25T17:01:57.254Z,97674.69
2022-12-25T17:04:24.031Z,97695.72
2022-12-25T17:06:50.634Z,97709.16
2022-12-25T17:09:17.217Z,97699.13
2022-12-25T17:11:43.800Z,97705.84
2022-12-25T17:14:10.681Z,97710.19
2022-12-25T17:16:38.515Z,97715.91
2022-12-25T17:19:09.747Z,97715.75
2022-12-25T17:21:38.227Z,97728.91
2022-12-25T17:24:05.831Z,97686.28
2022-12-25T17:26:33.554Z,97733.50
2022-12-25T17:29:00.348Z,97699.22
2022-12-25T17:31:27.091Z,97648.59
2022-12-25T17:33:54.387Z,97744.84
2022-12-25T17:36:22.213Z,97740.94
2022-12-25T17:38:49.060Z,97739.97
2022-12-25T17:41:17.512Z,97717.63
2022-12-25T17:43:45.724Z,97740.09
2022-12-25T17:46:24.785Z,97747.38
2022-12-25T17:48:53.071Z,97747.84
2022-12-25T17:51:22.908Z,97732.16
2022-12-25T17:53:52.334Z,97758.34
2022-12-25T17:56:20.277Z,97675.84
2022-12-25T17:58:55.341Z,97641.25
2022-12-25T18:01:23.748Z,97761.09
2022-12-25T18:03:51.143Z,97697.22
2022-12-25T18:06:20.693Z,97762.84
2022-12-25T18:08:47.635Z,97776.41
2022-12-25T18:11:16.722Z,97781.06
2022-12-25T18:13:50.005Z,97739.41
2022-12-25T18:16:17.470Z,97774.03
2022-12-25T18:18:51.424Z,97771.41
2022-12-25T18:21:18.788Z,97767.91
2022-12-25T18:23:46.300Z,97767.13
2022-12-25T18:26:13.285Z,97705.78
2022-12-25T18:28:42.473Z,97771.31
2022-12-25T18:31:14.900Z,97715.41
2022-12-25T18:33:43.958Z,97720.59
2022-12-25T18:36:13.337Z,97808.06
2022-12-25T18:38:39.955Z,97793.03
2022-12-25T18:41:08.332Z,97790.94
2022-12-25T18:43:53.693Z,97781.97
2022-12-25T18:46:24.420Z,97789.44
2022-12-25T18:48:51.903Z,97795.38
2022-12-25T18:51:18.825Z,97808.16
2022-12-25T18:53:45.674Z,97777.56
2022-12-25T18:56:17.911Z,97796.75
2022-12-25T18:58:45.708Z,97677.34
2022-12-25T19:01:18.056Z,97798.34
2022-12-25T19:03:46.636Z,97776.00
2022-12-25T19:06:25.151Z,97803.31
2022-12-25T19:08:52.345Z,97802.59
2022-12-25T19:11:20.206Z,97800.16
2022-12-25T19:13:47.694Z,97796.19
2022-12-25T19:16:15.065Z,97833.00
2022-12-25T19:18:42.563Z,97631.66
2022-12-25T19:21:09.846Z,97797.19
2022-12-25T19:23:37.966Z,97801.53
2022-12-25T19:26:06.135Z,97638.63
2022-12-25T19:28:33.108Z,97655.97
2022-12-25T19:31:01.170Z,97820.41
2022-12-25T19:33:27.867Z,97818.41
2022-12-25T19:35:59.961Z,97800.84
2022-12-25T19:38:26.576Z,97816.44
2022-12-25T19:41:03.780Z,97814.66
2022-12-25T19:43:35.926Z,97808.31
2022-12-25T19:46:03.563Z,97819.59
2022-12-25T19:48:31.829Z,97795.25
2022-12-25T19:50:58.783Z,97819.06
2022-12-25T19:53:25.804Z,97706.50
2022-12-25T19:55:53.601Z,97814.75
2022-12-25T19:58:21.808Z,97667.78
2022-12-25T20:00:59.457Z,97818.97
2022-12-25T20:03:26.593Z,97811.38
2022-12-25T20:05:53.343Z,97785.28
2022-12-25T20:08:20.088Z,97804.28
2022-12-25T20:10:46.820Z,97815.03
2022-12-25T20:13:13.435Z,97813.03
2022-12-25T20:15:40.140Z,97815.66
2022-12-25T20:18:06.816Z,97822.31
2022-12-25T20:20:33.407Z,97820.97
2022-12-25T20:23:00.000Z,97807.00
2022-12-25T20:25:26.647Z,97829.59
2022-12-25T20:27:53.472Z,97824.63
2022-12-25T20:30:20.096Z,97834.56
2022-12-25T20:32:50.564Z,97827.47
2022-12-25T20:35:17.544Z,97773.28
2022-12-25T20:37:44.103Z,97832.19
2022-12-25T20:40:12.948Z,97825.25
2022-12-25T20:42:39.562Z,97833.28
2022-12-25T20:45:07.639Z,97832.78
2022-12-25T20:47:35.228Z,97771.88
2022-12-25T20:50:02.151Z,97838.88
2022-12-25T20:52:28.871Z,97765.31
2022-12-25T20:54:55.467Z,97831.19
2022-12-25T20:57:22.078Z,97723.53
2022-12-25T20:59:48.697Z,97839.13
2022-12-25T21:02:35.535Z,97848.22
2022-12-25T21:05:03.877Z,97850.16
2022-12-25T21:07:30.990Z,97809.31
2022-12-25T21:09:57.800Z,97857.78
2022-12-25T21:12:24.410Z,97863.47
2022-12-25T21:14:51.104Z,97861.81
2022-12-25T21:17:17.910Z,97864.56
2022-12-25T21:19:44.511Z,97835.25
2022-12-25T21:22:11.096Z,97854.13
2022-12-25T21:24:37.690Z,97810.91
2022-12-25T21:27:04.357Z,97849.88
2022-12-25T21:29:31.174Z,97846.19
2022-12-25T21:32:16.300Z,97844.88
2022-12-25T21:34:42.867Z,97852.28
2022-12-25T21:37:09.516Z,97845.50
2022-12-25T21:39:36.192Z,97765.69
2022-12-25T21:42:04.692Z,97853.09
2022-12-25T21:44:31.380Z,97868.91
2022-12-25T21:46:58.097Z,97850.47
2022-12-25T21:49:43.310Z,97842.25
2022-12-25T21:52:09.959Z,97758.59
2022-12-25T21:54:36.832Z,97860.97
2022-12-25T21:57:03.907Z,97864.97
2022-12-25T21:59:30.487Z,97867.66
2022-12-25T22:01:57.188Z,97855.03
2022-12-25T22:04:23.961Z,97821.03
2022-12-25T22:07:09.739Z,97835.63
2022-12-25T22:09:37.197Z,97853.69
2022-12-25T22:12:24.452Z,97852.28
2022-12-25T22:14:57.909Z,97810.47
2022-12-25T22:17:48.516Z,97823.22
2022-12-25T22:20:19.517Z,97843.13
2022-12-25T22:22:46.200Z,97855.28
2022-12-25T22:25:13.763Z,97855.66
2022-12-25T22:27:42.078Z,97848.97
2022-12-25T22:30:12.799Z,97784.47
2022-12-25T22:32:40.049Z,97855.28
2022-12-25T22:35:07.629Z,97769.59
2022-12-25T22:37:35.919Z,97814.22
2022-12-25T22:40:04.139Z,97861.13
2022-12-25T22:42:31.104Z,97722.31
2022-12-25T22:44:57.756Z,97813.91
2022-12-25T22:47:24.432Z,97857.16
2022-12-25T22:49:51.160Z,97879.81
2022-12-25T22:52:17.901Z,97802.44
2022-12-25T22:54:44.538Z,97876.78
2022-12-25T22:57:11.089Z,97874.91
2022-12-25T22:59:37.826Z,97877.22
2022-12-25T23:02:04.563Z,97876.03
2022-12-25T23:04:31.280Z,97875.97
2022-12-25T23:06:58.281Z,97863.41
2022-12-25T23:09:27.862Z,97868.28
2022-12-25T23:11:59.349Z,97859.56
2022-12-25T23:14:39.012Z,97872.56
2022-12-25T23:17:30.362Z,97868.88
2022-12-25T23:20:17.639Z,97872.94
2022-12-25T23:23:03.546Z,97867.84
2022-12-25T23:25:48.849Z,97824.94
2022-12-25T23:28:35.649Z,97884.25
2022-12-25T23:31:02.327Z,97878.03
2022-12-25T23:33:29.013Z,97882.97
2022-12-25T23:35:55.607Z,97863.91
2022-12-25T23:38:22.275Z,97804.94
2022-12-25T23:40:48.837Z,97894.78
2022-12-25T23:43:15.470Z,97903.56
2022-12-25T23:45:42.095Z,97909.66
2022-12-25T23:48:08.687Z,97895.63
2022-12-25T23:50:35.281Z,97896.66
2022-12-25T23:53:01.840Z,97891.50
2022-12-25T23:55:28.492Z,97904.50
2022-12-25T23:57:55.086Z,97911.81
